Terminal Aerodrome Forecast
Issued by NWS Louisville, KY

Home | Current Version | Previous Version | Text Only | Print | Product List | Glossary On
Versions: 1 2 3 4 5 6 7 8 9 10 11 12 13 14 15 16 17 18
876
FTUS43 KLMK 091123
TAFLEX
TAF
KLEX 091123Z 0912/1012 29008KT P6SM -SHSN FEW015 OVC025
     FM091800 28007KT P6SM SCT030
     FM100500 25004KT P6SM BKN150=

USA.gov is the U.S. government's official web portal to all federal, state and local government web resources and services.